Lewiston, MI

12:00 PM EDT on August 31, 2015 (GMT -0400)
Moon Lake | | Change Station
CLOSE
Current Station
Personal Weather Station
Location: Lewiston, MI
Elevation: 1240 ft
Nearby Weather Stations

Elev 1240 ft 44.84 °N, 84.26 °W | Updated 0 second ago

Overcast
Overcast
69.1 °F
Feels Like 69.1 °F
N
1.3
Wind Variable Wind from SE
Gusts 1.3 mph

Today
High -- | Low -- °F
--% Chance of Precip.
Yesterday
High -- | Low -- °F
Precip. -- in
6:57 AM 8:16 PM
Waning Gibbous, 95% visible
Pressure 30.08 in
Visibility 7.0 miles
Clouds Overcast 500 ft
Dew Point 64 °F
Humidity 85%
Rainfall 0.00 in
Snow Depth Not available.
UV 2 out of 12
Pollen 10.90 out of 12
Air Quality Not available.
Flu Activity Not available.
METAR KGOV 311518Z AUTO 24007KT 7SM OVC005 19/18 A3008 RMK AO2 T01900178
Pressure 30.08 in
Visibility 7.0 miles
Clouds Overcast 500 ft
Dew Point 64 °F
Humidity 85%
Rainfall 0.00 in
Snow Depth Not available.
UV 2 out of 12
Pollen 10.90 out of 12
Air Quality Not available.
Flu Activity Not available.
METAR KGOV 311518Z AUTO 24007KT 7SM OVC005 19/18 A3008 RMK AO2 T01900178
Nowcast | as of 11:00 am EDT on August 31, 2015

At 12 PM...partly cloudy. Temperature 77. West winds 6 mph. At 2 PM...partly cloudy. Temperature 83. West winds 6 mph. At 4 PM...mostly clear. Temperature 84. Southwest winds 6 mph. At 6 PM...mostly clear. Temperature 84. West winds 5 mph.

×

10-Day Weather Forecast

×

Almanac

Astronomy

Aug. 31, 2015 Rise Set
Actual Time
Civil Twilight
Nautical Twilight
Astronomical Twilight
Moon
Length of Visible Light
Length of Day
Tomorrow will be .
, % of the Moon is Illuminated

Today's Extremes

State Highs State Lows

Community

WunderPhotos

Upload Photos

1,851,298 photos uploaded!

WunderBlogs® & News

Nearby

Air Quality

  Air Quality AQ Index Pollutant
Not available.

Snow Depth

Station Depth Elevation

Earthquake Activity

City Distance Mag. Time & Date
Minimum magnitude displayed is 2.5.

Coastal Water Temperatures

Place Temperature

Stations

Nearby Weather Stations

Station Location Temp. Windchill Dew Point Humidity Wind Precip. Elev Updated Type